createdAt,value
2018-03-03T00:00:36.215Z,99211.14
2018-03-03T00:03:05.585Z,99206.55
2018-03-03T00:05:36.599Z,99207.59
2018-03-03T00:08:06.085Z,99209.50
2018-03-03T00:10:35.596Z,99215.11
2018-03-03T00:13:05.580Z,99227.23
2018-03-03T00:15:34.788Z,99220.55
2018-03-03T00:18:07.112Z,99210.34
2018-03-03T00:20:37.233Z,99206.58
2018-03-03T00:23:09.124Z,99218.65
2018-03-03T00:25:39.256Z,99217.05
2018-03-03T00:28:10.923Z,99216.70
2018-03-03T00:30:43.385Z,99216.83
2018-03-03T00:33:12.899Z,99225.52
2018-03-03T00:35:42.696Z,99223.41
2018-03-03T00:38:15.607Z,99217.11
2018-03-03T00:40:45.610Z,99224.90
2018-03-03T00:43:18.744Z,99220.73
2018-03-03T00:45:48.455Z,99228.13
2018-03-03T00:48:18.109Z,99230.28
2018-03-03T00:50:47.255Z,99239.81
2018-03-03T00:53:18.544Z,99235.19
2018-03-03T00:55:49.305Z,99240.09
2018-03-03T00:58:20.244Z,99243.52
2018-03-03T01:00:52.900Z,99239.78
2018-03-03T01:03:28.461Z,99250.17
2018-03-03T01:05:58.084Z,99254.05
2018-03-03T01:08:28.420Z,99250.32
2018-03-03T01:11:06.320Z,99252.46
2018-03-03T01:13:36.652Z,99250.44
2018-03-03T01:16:05.863Z,99254.36
2018-03-03T01:18:35.503Z,99248.91
2018-03-03T01:21:04.872Z,99250.66
2018-03-03T01:23:35.583Z,99251.28
2018-03-03T01:26:06.579Z,99260.70
2018-03-03T01:28:36.949Z,99262.88
2018-03-03T01:31:07.219Z,99259.56
2018-03-03T01:33:36.816Z,99252.33
2018-03-03T01:36:06.058Z,99247.23
2018-03-03T01:38:36.440Z,99248.52
2018-03-03T01:41:07.681Z,99249.99
2018-03-03T01:43:39.248Z,99252.52
2018-03-03T01:46:09.269Z,99253.45
2018-03-03T01:48:40.884Z,99245.47
2018-03-03T01:54:08.484Z,99249.08
2018-03-03T01:56:37.417Z,99259.42
2018-03-03T01:59:06.230Z,99262.06
2018-03-03T02:01:35.291Z,99260.84
2018-03-03T02:04:04.104Z,99260.45
2018-03-03T02:06:33.010Z,99255.86
2018-03-03T02:09:01.870Z,99255.51
2018-03-03T02:11:30.647Z,99262.84
2018-03-03T02:13:59.727Z,99250.20
2018-03-03T02:16:28.931Z,99263.85
2018-03-03T02:18:58.085Z,99257.55
2018-03-03T02:21:27.161Z,99259.80
2018-03-03T02:23:56.403Z,99257.30
2018-03-03T02:26:25.669Z,99256.91
2018-03-03T02:28:54.748Z,99249.75
2018-03-03T02:31:23.902Z,99251.64
2018-03-03T02:33:53.520Z,99252.56
2018-03-03T02:36:23.995Z,99257.80
2018-03-03T02:38:54.171Z,99263.36
2018-03-03T02:41:24.900Z,99263.00
2018-03-03T02:43:55.389Z,99267.74
2018-03-03T02:46:26.889Z,99254.91
2018-03-03T02:48:58.457Z,99264.99
2018-03-03T02:51:28.835Z,99268.05
2018-03-03T02:54:01.242Z,99259.08
2018-03-03T02:56:31.648Z,99267.27
2018-03-03T02:59:03.405Z,99277.17
2018-03-03T03:01:32.596Z,99274.67
2018-03-03T03:04:02.603Z,99262.81
2018-03-03T03:06:33.413Z,99268.47
2018-03-03T03:09:04.832Z,99274.95
2018-03-03T03:11:34.350Z,99280.97
2018-03-03T03:14:06.181Z,99281.98
2018-03-03T03:16:36.842Z,99272.55
2018-03-03T03:19:07.763Z,99264.61
2018-03-03T03:21:39.133Z,99276.08
2018-03-03T03:24:09.732Z,99278.78
2018-03-03T03:26:41.065Z,99273.58
2018-03-03T03:29:11.688Z,99273.26
2018-03-03T03:31:42.646Z,99268.20
2018-03-03T03:34:11.743Z,99266.52
2018-03-03T03:36:42.567Z,99270.04
2018-03-03T03:39:13.769Z,99279.02
2018-03-03T03:41:42.955Z,99281.67
2018-03-03T03:44:11.745Z,99279.60
2018-03-03T03:46:40.823Z,99277.93
2018-03-03T03:49:09.675Z,99283.09
2018-03-03T03:51:39.060Z,99274.64
2018-03-03T03:54:07.975Z,99273.86
2018-03-03T03:56:36.915Z,99268.87
2018-03-03T03:59:05.980Z,99276.58
2018-03-03T04:01:35.087Z,99274.09
2018-03-03T04:04:04.123Z,99271.53
2018-03-03T04:06:32.996Z,99277.57
2018-03-03T04:09:02.504Z,99285.32
2018-03-03T04:11:31.351Z,99286.20
2018-03-03T04:14:00.141Z,99289.26
2018-03-03T04:16:28.936Z,99287.19
2018-03-03T04:18:58.904Z,99278.32
2018-03-03T04:21:27.960Z,99286.00
2018-03-03T04:23:56.719Z,99283.90
2018-03-03T04:26:25.564Z,99272.87
2018-03-03T04:28:54.292Z,99275.53
2018-03-03T04:31:23.448Z,99276.02
2018-03-03T04:33:52.558Z,99275.63
2018-03-03T04:36:21.300Z,99277.42
2018-03-03T04:38:50.243Z,99280.54
2018-03-03T04:41:19.116Z,99278.86
2018-03-03T04:43:48.209Z,99276.37
2018-03-03T04:46:17.016Z,99279.02
2018-03-03T04:48:46.005Z,99278.20
2018-03-03T04:51:14.962Z,99276.09
2018-03-03T04:53:43.637Z,99278.72
2018-03-03T04:56:12.374Z,99277.11
2018-03-03T04:58:41.035Z,99283.94
2018-03-03T05:01:10.388Z,99280.22
2018-03-03T05:06:57.443Z,99285.03
2018-03-03T05:09:26.552Z,99289.33
2018-03-03T05:11:55.207Z,99294.11
2018-03-03T05:14:29.554Z,99286.07
2018-03-03T05:17:00.508Z,99287.41
2018-03-03T05:19:39.408Z,99289.58
2018-03-03T05:25:24.673Z,99297.38
2018-03-03T05:27:59.121Z,99295.78
2018-03-03T05:30:33.297Z,99300.05
2018-03-03T05:33:07.436Z,99300.11
2018-03-03T05:35:40.023Z,99309.09
2018-03-03T05:41:22.098Z,99313.93
2018-03-03T05:43:56.797Z,99313.95
2018-03-03T05:49:35.806Z,99310.23
2018-03-03T05:52:10.207Z,99318.80
2018-03-03T05:54:58.767Z,99318.34
2018-03-03T05:57:33.476Z,99307.71
2018-03-03T06:00:08.944Z,99313.70
2018-03-03T06:02:45.727Z,99311.98
2018-03-03T06:05:20.048Z,99313.20
2018-03-03T06:07:54.588Z,99313.95
2018-03-03T06:10:39.335Z,99309.23
2018-03-03T06:13:08.459Z,99316.86
2018-03-03T06:15:37.624Z,99319.30
2018-03-03T06:18:07.519Z,99312.08
2018-03-03T06:20:36.745Z,99325.12
2018-03-03T06:23:05.846Z,99333.59
2018-03-03T06:25:34.987Z,99342.00
2018-03-03T06:28:03.864Z,99344.14
2018-03-03T06:30:33.147Z,99341.83
2018-03-03T06:33:02.301Z,99351.58
2018-03-03T06:35:31.641Z,99341.34
2018-03-03T06:38:00.753Z,99345.88
2018-03-03T06:40:30.701Z,99350.86
2018-03-03T06:43:00.024Z,99350.73
2018-03-03T06:45:29.120Z,99348.02
2018-03-03T06:47:58.204Z,99347.35
2018-03-03T06:50:27.406Z,99350.09
2018-03-03T06:52:57.431Z,99347.44
2018-03-03T06:55:28.009Z,99332.34
2018-03-03T06:57:59.179Z,99330.34
2018-03-03T07:00:29.675Z,99322.37
2018-03-03T07:02:59.869Z,99310.64
2018-03-03T07:05:30.374Z,99307.72
2018-03-03T07:08:01.653Z,99297.94
2018-03-03T07:10:33.554Z,99293.95
2018-03-03T07:13:04.775Z,99303.12
2018-03-03T07:15:34.129Z,99313.17
2018-03-03T07:18:04.037Z,99312.75
2018-03-03T07:20:34.980Z,99317.67
2018-03-03T07:23:04.056Z,99317.23
2018-03-03T07:25:35.907Z,99318.14
2018-03-03T07:28:09.356Z,99312.22
2018-03-03T07:30:39.102Z,99309.34
2018-03-03T07:33:10.304Z,99310.45
2018-03-03T07:35:39.488Z,99298.88
2018-03-03T07:38:09.763Z,99291.14
2018-03-03T07:40:40.280Z,99296.38
2018-03-03T07:43:10.960Z,99296.41
2018-03-03T07:45:42.294Z,99288.78
2018-03-03T07:48:13.751Z,99298.72
2018-03-03T07:50:43.988Z,99294.83
2018-03-03T07:53:15.945Z,99298.47
2018-03-03T07:55:46.197Z,99294.48
2018-03-03T07:58:28.530Z,99303.44
2018-03-03T08:00:57.650Z,99302.58
2018-03-03T08:03:26.591Z,99310.79
2018-03-03T08:05:55.558Z,99313.55
2018-03-03T08:08:24.623Z,99299.42
2018-03-03T08:10:55.125Z,99308.29
2018-03-03T08:13:26.461Z,99304.33
2018-03-03T08:15:56.264Z,99309.19
2018-03-03T08:18:26.694Z,99311.80
2018-03-03T08:20:57.336Z,99312.19
2018-03-03T08:23:28.612Z,99310.20
2018-03-03T08:25:59.046Z,99315.34
2018-03-03T08:28:29.647Z,99304.73
2018-03-03T08:31:01.202Z,99304.25
2018-03-03T08:33:31.556Z,99299.25
2018-03-03T08:36:02.361Z,99306.70
2018-03-03T08:38:33.994Z,99304.12
2018-03-03T08:41:05.672Z,99309.43
2018-03-03T08:43:35.333Z,99302.42
2018-03-03T08:46:05.616Z,99306.15
2018-03-03T08:48:35.928Z,99302.37
2018-03-03T08:51:06.435Z,99310.20
2018-03-03T08:53:36.962Z,99300.16
2018-03-03T08:56:07.807Z,99303.42
2018-03-03T08:58:39.073Z,99305.27
2018-03-03T09:01:09.554Z,99303.11
2018-03-03T09:03:42.404Z,99307.13
2018-03-03T09:06:13.990Z,99303.47
2018-03-03T09:08:44.506Z,99302.19
2018-03-03T09:11:13.583Z,99297.95
2018-03-03T09:13:42.960Z,99303.66
2018-03-03T09:16:13.450Z,99297.53
2018-03-03T09:18:43.983Z,99295.06
2018-03-03T09:21:13.679Z,99298.56
2018-03-03T09:23:44.732Z,99297.16
2018-03-03T09:26:17.067Z,99300.45
2018-03-03T09:28:49.388Z,99301.23
2018-03-03T09:31:22.300Z,99294.88
2018-03-03T09:33:52.972Z,99295.41
2018-03-03T09:36:22.112Z,99294.77
2018-03-03T09:38:52.351Z,99298.73
2018-03-03T09:41:23.813Z,99291.11
2018-03-03T09:43:54.802Z,99296.34
2018-03-03T09:46:25.663Z,99293.26
2018-03-03T09:48:56.975Z,99294.56
2018-03-03T09:51:27.539Z,99296.44
2018-03-03T09:53:58.992Z,99303.77
2018-03-03T09:56:29.495Z,99298.13
2018-03-03T09:59:00.250Z,99291.34
2018-03-03T10:01:30.579Z,99291.23
2018-03-03T10:04:01.399Z,99288.70
2018-03-03T10:06:32.156Z,99285.15
2018-03-03T10:09:02.944Z,99290.53
2018-03-03T10:11:33.650Z,99286.82
2018-03-03T10:14:04.266Z,99289.77
2018-03-03T10:16:34.862Z,99286.23
2018-03-03T10:19:05.485Z,99282.42
2018-03-03T10:21:35.796Z,99275.06
2018-03-03T10:24:07.440Z,99273.62
2018-03-03T10:26:37.943Z,99265.11
2018-03-03T10:29:08.859Z,99263.17
2018-03-03T10:31:40.051Z,99265.99
2018-03-03T10:34:11.076Z,99252.23
2018-03-03T10:36:41.743Z,99249.30
2018-03-03T10:39:12.624Z,99250.56
2018-03-03T10:41:43.888Z,99258.28
2018-03-03T10:44:14.792Z,99255.95
2018-03-03T10:46:45.712Z,99258.83
2018-03-03T10:49:16.592Z,99249.78
2018-03-03T10:51:47.845Z,99244.55
2018-03-03T10:54:18.755Z,99242.91
2018-03-03T10:56:49.269Z,99235.09
2018-03-03T10:59:19.919Z,99239.87
2018-03-03T11:01:51.617Z,99237.84
2018-03-03T11:04:22.146Z,99231.98
2018-03-03T11:06:52.782Z,99237.97
2018-03-03T11:09:23.709Z,99236.31
2018-03-03T11:11:54.597Z,99245.34
2018-03-03T11:14:24.923Z,99242.05
2018-03-03T11:16:55.556Z,99237.57
2018-03-03T11:19:26.226Z,99237.83
2018-03-03T11:21:57.145Z,99233.53
2018-03-03T11:24:26.391Z,99229.97
2018-03-03T11:26:56.531Z,99233.05
2018-03-03T11:29:27.561Z,99214.50
2018-03-03T11:31:58.354Z,99211.72
2018-03-03T11:34:29.790Z,99214.55
2018-03-03T11:36:58.860Z,99206.52
2018-03-03T11:39:27.946Z,99203.11
2018-03-03T11:41:57.091Z,99201.83
2018-03-03T11:44:26.216Z,99203.16
2018-03-03T11:46:55.020Z,99199.02
2018-03-03T11:49:23.921Z,99200.09
2018-03-03T11:51:52.723Z,99199.89
2018-03-03T11:54:21.853Z,99194.70
2018-03-03T11:56:50.974Z,99199.73
2018-03-03T11:59:19.782Z,99192.62
2018-03-03T12:01:48.807Z,99200.05
2018-03-03T12:04:17.695Z,99198.62
2018-03-03T12:06:46.506Z,99191.16
2018-03-03T12:09:15.586Z,99202.02
2018-03-03T12:11:44.457Z,99195.98
2018-03-03T12:14:13.252Z,99199.57
2018-03-03T12:16:42.035Z,99194.39
2018-03-03T12:19:11.233Z,99191.13
2018-03-03T12:21:40.305Z,99195.44
2018-03-03T12:24:09.092Z,99199.16
2018-03-03T12:26:37.977Z,99194.13
2018-03-03T12:29:06.753Z,99193.52
2018-03-03T12:31:35.864Z,99191.56
2018-03-03T12:34:04.766Z,99200.09
2018-03-03T12:36:33.557Z,99203.87
2018-03-03T12:39:02.649Z,99200.09
2018-03-03T12:41:31.752Z,99200.97
2018-03-03T12:44:00.794Z,99195.44
2018-03-03T12:46:29.738Z,99192.80
2018-03-03T12:48:58.811Z,99199.15
2018-03-03T12:51:27.737Z,99203.16
2018-03-03T12:53:56.873Z,99200.66
2018-03-03T12:56:25.907Z,99192.53
2018-03-03T12:58:54.688Z,99190.06
2018-03-03T13:01:23.827Z,99195.20
2018-03-03T13:03:52.724Z,99199.11
2018-03-03T13:06:21.697Z,99196.80
2018-03-03T13:08:50.683Z,99200.45
2018-03-03T13:11:19.892Z,99193.64
2018-03-03T13:13:48.968Z,99199.38
2018-03-03T13:16:17.749Z,99200.00
2018-03-03T13:18:46.795Z,99199.24
2018-03-03T13:21:15.578Z,99207.28
2018-03-03T13:23:44.719Z,99195.20
2018-03-03T13:26:13.601Z,99199.32
2018-03-03T13:28:42.751Z,99200.66
2018-03-03T13:31:11.796Z,99202.53
2018-03-03T13:33:40.643Z,99200.72
2018-03-03T13:36:09.545Z,99208.31
2018-03-03T13:38:38.328Z,99201.63
2018-03-03T13:41:07.463Z,99211.24
2018-03-03T13:43:36.480Z,99207.63
2018-03-03T13:46:05.284Z,99205.30
2018-03-03T13:48:34.235Z,99210.59
2018-03-03T13:51:03.012Z,99208.34
2018-03-03T13:53:31.827Z,99216.67
2018-03-03T13:56:00.673Z,99208.80
2018-03-03T13:58:29.778Z,99205.55
2018-03-03T14:00:58.804Z,99208.27
2018-03-03T14:03:27.713Z,99199.30
2018-03-03T14:05:56.688Z,99200.52
2018-03-03T14:08:25.584Z,99193.13
2018-03-03T14:10:54.600Z,99188.11
2018-03-03T14:13:23.496Z,99189.91
2018-03-03T14:15:52.348Z,99195.91
2018-03-03T14:18:21.555Z,99192.00
2018-03-03T14:20:50.642Z,99195.05
2018-03-03T14:23:19.532Z,99187.09
2018-03-03T14:25:48.683Z,99187.19
2018-03-03T14:28:33.242Z,99184.58
2018-03-03T14:31:02.535Z,99187.75
2018-03-03T14:33:31.526Z,99189.95
2018-03-03T14:36:00.689Z,99183.88
2018-03-03T14:38:29.543Z,99185.25
2018-03-03T14:40:58.631Z,99175.08
2018-03-03T14:43:27.567Z,99179.50
2018-03-03T14:45:56.701Z,99178.66
2018-03-03T14:48:25.805Z,99178.05
2018-03-03T14:50:54.888Z,99172.28
2018-03-03T14:53:24.044Z,99179.95
2018-03-03T14:55:53.136Z,99177.25
2018-03-03T14:58:22.220Z,99182.69
2018-03-03T15:00:51.616Z,99186.89
2018-03-03T15:03:20.554Z,99182.56
2018-03-03T15:05:50.149Z,99182.54
2018-03-03T15:08:20.959Z,99186.26
2018-03-03T15:10:50.451Z,99181.47
2018-03-03T15:13:21.892Z,99178.45
2018-03-03T15:15:52.580Z,99182.21
2018-03-03T15:18:24.072Z,99193.35
2018-03-03T15:20:54.422Z,99184.95
2018-03-03T15:23:25.679Z,99189.01
2018-03-03T15:25:58.452Z,99193.48
2018-03-03T15:28:28.280Z,99191.78
2018-03-03T15:31:01.065Z,99194.34
2018-03-03T15:33:30.888Z,99189.66
2018-03-03T15:36:01.256Z,99194.95
2018-03-03T15:38:31.561Z,99203.04
2018-03-03T15:41:01.956Z,99200.91
2018-03-03T15:43:36.823Z,99213.63
2018-03-03T15:46:06.144Z,99217.56
2018-03-03T15:48:35.770Z,99220.56
2018-03-03T15:51:06.340Z,99220.98
2018-03-03T15:53:36.838Z,99218.82
2018-03-03T15:56:08.375Z,99217.33
2018-03-03T15:58:38.888Z,99232.50
2018-03-03T16:01:09.902Z,99228.95
2018-03-03T16:03:40.716Z,99232.56
2018-03-03T16:06:11.667Z,99231.70
2018-03-03T16:08:42.628Z,99231.61
2018-03-03T16:11:13.209Z,99244.03
2018-03-03T16:13:43.987Z,99240.19
2018-03-03T16:16:14.888Z,99247.13
2018-03-03T16:18:45.691Z,99249.66
2018-03-03T16:21:16.344Z,99248.98
2018-03-03T16:23:47.835Z,99257.41
2018-03-03T16:26:21.201Z,99248.22
2018-03-03T16:28:50.613Z,99264.54
2018-03-03T16:31:21.034Z,99261.00
2018-03-03T16:33:51.973Z,99264.45
2018-03-03T16:36:24.677Z,99265.18
2018-03-03T16:38:55.814Z,99267.17
2018-03-03T16:41:25.696Z,99268.05
2018-03-03T16:43:55.205Z,99271.02
2018-03-03T16:46:25.890Z,99266.86
2018-03-03T16:48:55.714Z,99273.67
2018-03-03T16:51:26.430Z,99284.27
2018-03-03T16:53:57.074Z,99277.16
2018-03-03T16:56:27.515Z,99282.50
2018-03-03T16:58:58.128Z,99288.91
2018-03-03T17:01:29.693Z,99290.72
2018-03-03T17:04:00.216Z,99292.75
2018-03-03T17:06:31.224Z,99287.45
2018-03-03T17:09:02.143Z,99288.52
2018-03-03T17:11:33.552Z,99289.77
2018-03-03T17:14:04.209Z,99287.67
2018-03-03T17:16:35.121Z,99291.66
2018-03-03T17:19:06.487Z,99300.44
2018-03-03T17:21:37.128Z,99297.80
2018-03-03T17:24:08.405Z,99310.91
2018-03-03T17:26:39.180Z,99299.98
2018-03-03T17:29:10.475Z,99299.95
2018-03-03T17:31:42.109Z,99306.11
2018-03-03T17:34:12.822Z,99315.65
2018-03-03T17:36:43.758Z,99319.45
2018-03-03T17:39:14.251Z,99314.08
2018-03-03T17:41:44.929Z,99319.86
2018-03-03T17:44:15.784Z,99315.98
2018-03-03T17:46:46.719Z,99325.02
2018-03-03T17:49:17.651Z,99329.19
2018-03-03T17:51:48.621Z,99329.06
2018-03-03T17:54:19.909Z,99334.63
2018-03-03T17:56:50.815Z,99339.70
2018-03-03T17:59:21.744Z,99334.33
2018-03-03T18:01:52.735Z,99343.35
2018-03-03T18:04:23.671Z,99331.73
2018-03-03T18:06:54.916Z,99340.27
2018-03-03T18:09:25.832Z,99339.66
2018-03-03T18:12:00.693Z,99328.91
2018-03-03T18:14:30.020Z,99335.22
2018-03-03T18:16:59.562Z,99339.58
2018-03-03T18:19:46.134Z,99336.19
2018-03-03T18:22:16.636Z,99351.17
2018-03-03T18:24:46.098Z,99348.41
2018-03-03T18:27:16.208Z,99351.37
2018-03-03T18:29:45.391Z,99353.47
2018-03-03T18:32:14.532Z,99351.92
2018-03-03T18:34:43.710Z,99352.05
2018-03-03T18:37:13.026Z,99356.98
2018-03-03T18:39:42.272Z,99349.45
2018-03-03T18:42:11.397Z,99356.08
2018-03-03T18:44:40.688Z,99360.98
2018-03-03T18:47:10.394Z,99360.66
2018-03-03T18:49:40.922Z,99364.89
2018-03-03T18:52:11.898Z,99359.38
2018-03-03T18:54:42.841Z,99356.64
2018-03-03T18:57:13.645Z,99364.44
2018-03-03T18:59:45.312Z,99368.68
2018-03-03T19:02:15.869Z,99370.58
2018-03-03T19:04:46.882Z,99368.31
2018-03-03T19:07:17.368Z,99375.48
2018-03-03T19:09:47.931Z,99369.82
2018-03-03T19:12:18.791Z,99372.30
2018-03-03T19:14:49.851Z,99380.94
2018-03-03T19:17:21.004Z,99390.59
2018-03-03T19:19:52.033Z,99392.95
2018-03-03T19:22:22.911Z,99397.47
2018-03-03T19:24:53.868Z,99396.23
2018-03-03T19:27:24.709Z,99400.63
2018-03-03T19:29:55.708Z,99401.83
2018-03-03T19:32:27.046Z,99401.69
2018-03-03T19:34:58.022Z,99405.99
2018-03-03T19:37:28.833Z,99402.94
2018-03-03T19:39:59.721Z,99409.42
2018-03-03T19:42:30.610Z,99408.55
2018-03-03T19:45:01.982Z,99421.75
2018-03-03T19:47:32.858Z,99415.23
2018-03-03T19:50:03.817Z,99421.70
2018-03-03T19:52:34.373Z,99417.81
2018-03-03T19:55:04.929Z,99420.19
2018-03-03T19:57:35.724Z,99421.70
2018-03-03T20:00:06.716Z,99420.70
2018-03-03T20:02:37.630Z,99427.48
2018-03-03T20:05:16.316Z,99424.41
2018-03-03T20:10:49.783Z,99426.97
2018-03-03T20:13:19.253Z,99431.21
2018-03-03T20:15:48.273Z,99432.81
2018-03-03T20:18:19.565Z,99428.86
2018-03-03T20:20:48.702Z,99428.77
2018-03-03T20:23:17.710Z,99440.55
2018-03-03T20:25:46.742Z,99434.25
2018-03-03T20:28:15.757Z,99434.11
2018-03-03T20:30:44.785Z,99441.64
2018-03-03T20:33:13.971Z,99432.08
2018-03-03T20:35:42.780Z,99431.88
2018-03-03T20:38:11.694Z,99441.17
2018-03-03T20:40:40.708Z,99444.42
2018-03-03T20:43:09.832Z,99433.48
2018-03-03T20:45:39.056Z,99453.42
2018-03-03T20:48:08.366Z,99447.16
2018-03-03T20:50:37.479Z,99446.97
2018-03-03T20:53:06.606Z,99455.81
2018-03-03T20:55:35.777Z,99455.62
2018-03-03T20:58:05.020Z,99458.24
2018-03-03T21:00:34.115Z,99453.56
2018-03-03T21:03:03.370Z,99461.48
2018-03-03T21:05:32.487Z,99461.59
2018-03-03T21:08:02.928Z,99462.11
2018-03-03T21:10:33.762Z,99462.69
2018-03-03T21:13:04.496Z,99463.20
2018-03-03T21:15:35.908Z,99461.20
2018-03-03T21:18:06.833Z,99459.61
2018-03-03T21:20:37.778Z,99463.62
2018-03-03T21:23:08.656Z,99465.91
2018-03-03T21:25:39.598Z,99461.80
2018-03-03T21:28:11.753Z,99457.30
2018-03-03T21:30:42.341Z,99461.35
2018-03-03T21:33:12.925Z,99469.84
2018-03-03T21:35:43.867Z,99468.73
2018-03-03T21:38:14.749Z,99471.09
2018-03-03T21:40:45.910Z,99472.13
2018-03-03T21:43:16.748Z,99475.36
2018-03-03T21:45:47.769Z,99478.08
2018-03-03T21:48:18.623Z,99480.75
2018-03-03T21:50:49.916Z,99472.80
2018-03-03T21:53:21.232Z,99478.52
2018-03-03T21:55:52.645Z,99479.64
2018-03-03T21:58:23.388Z,99474.53
2018-03-03T22:04:21.996Z,99480.93
2018-03-03T22:06:51.192Z,99475.17
2018-03-03T22:09:20.383Z,99480.96
2018-03-03T22:11:49.950Z,99484.58
2018-03-03T22:14:19.226Z,99493.80
2018-03-03T22:16:48.851Z,99497.75
2018-03-03T22:19:18.068Z,99491.52
2018-03-03T22:21:46.904Z,99498.42
2018-03-03T22:24:15.954Z,99495.08
2018-03-03T22:26:44.888Z,99493.95
2018-03-03T22:29:14.448Z,99500.91
2018-03-03T22:31:44.754Z,99506.53
2018-03-03T22:34:15.216Z,99505.80
2018-03-03T22:36:44.296Z,99506.66
2018-03-03T22:39:13.335Z,99510.75
2018-03-03T22:41:42.463Z,99511.34
2018-03-03T22:44:11.672Z,99519.23
2018-03-03T22:46:41.105Z,99520.25
2018-03-03T22:49:10.567Z,99525.99
2018-03-03T22:51:39.880Z,99524.28
2018-03-03T22:54:08.875Z,99526.51
2018-03-03T22:56:38.009Z,99520.31
2018-03-03T22:59:07.449Z,99517.34
2018-03-03T23:01:36.624Z,99514.38
2018-03-03T23:04:05.537Z,99513.64
2018-03-03T23:06:36.039Z,99515.91
2018-03-03T23:09:04.484Z,99520.27
2018-03-03T23:11:33.795Z,99524.64
2018-03-03T23:14:03.120Z,99525.16
2018-03-03T23:16:32.339Z,99525.27
2018-03-03T23:19:01.531Z,99531.47
2018-03-03T23:21:30.679Z,99527.68
2018-03-03T23:23:59.992Z,99530.30
2018-03-03T23:26:29.713Z,99525.77
2018-03-03T23:28:58.870Z,99531.77
2018-03-03T23:31:29.154Z,99530.21
2018-03-03T23:33:58.455Z,99530.36
2018-03-03T23:36:30.000Z,99530.52
2018-03-03T23:38:59.676Z,99537.09
2018-03-03T23:41:31.273Z,99525.32
2018-03-03T23:44:02.426Z,99519.66
2018-03-03T23:46:32.661Z,99527.73
2018-03-03T23:49:03.966Z,99526.55
2018-03-03T23:51:34.555Z,99528.06
2018-03-03T23:54:05.240Z,99528.67
2018-03-03T23:56:37.763Z,99535.13
2018-03-03T23:59:07.327Z,99536.42
